Latest Weather Observations for Williamson

IDQ60801

Issued at 3:35 pm EST Friday 22 August 2014 (issued every 30 minutes, with the page automatically refreshed every 10 minutes)

About weather observations | Map of weather stations | Latest weather observations for QLD | Other Formats
Station Details ID: 033195 Name: WILLIAMSON Lat: -22.47 Lon: 150.18 Height: 27.6 m
Data from the previous 72 hours. | See also: Recent months at Williamson
Date/Time
EST
Temp
°C
App
Temp
°C
Dew
Point
Rel
Hum
%
Delta-T
°C
Wind Press
QNH
hPa
Press
MSL
hPa
Rain
since 9 am
mm
Dir
 
Spd
km/h
Gust
km/h
Spd
kts
Gust
kts
22/03:30pm 23.2 22.5 14.2 57 5.3 NNE 11 19 6 10 1018.2 1018.1 0.0
22/03:00pm 24.3 24.0 13.2 50 6.4 NW 7 11 4 6 1018.2 1018.1 0.0
22/02:30pm 22.8 22.3 12.7 53 5.8 E 7 17 4 9 1018.4 1018.3 0.0
22/02:00pm 21.9 20.8 13.0 57 5.1 SSE 11 19 6 10 1018.8 1018.7 0.0
22/01:30pm 22.2 21.4 13.0 56 5.3 SE 9 19 5 10 1019.3 1019.2 0.0
22/01:00pm 21.6 20.5 13.2 59 4.8 SE 11 24 6 13 1019.9 1019.8 0.0
22/12:30pm 21.9 20.9 13.3 58 4.9 ESE 11 22 6 12 1020.3 1020.2 0.0
22/12:00pm 20.9 19.3 12.8 60 4.6 SSE 13 22 7 12 1021.0 1020.9 0.0
22/11:30am 21.1 19.7 13.3 61 4.5 SSE 13 24 7 13 1021.4 1021.3 0.0
22/11:00am 20.7 18.6 13.6 64 4.1 S 17 26 9 14 1021.8 1021.7 0.0
22/10:30am 19.9 17.4 14.0 69 3.4 S 20 28 11 15 1022.1 1022.0 0.0
22/10:00am 18.8 17.3 14.1 74 2.7 S 15 24 8 13 1022.6 1022.5 0.0
22/09:30am 18.2 16.6 13.9 76 2.5 S 15 22 8 12 1022.7 1022.6 0.0
22/09:00am 17.5 16.1 14.4 82 1.8 S 15 22 8 12 1022.7 1022.6 0.0
22/08:30am 17.0 15.9 14.3 84 1.5 S 13 20 7 11 1022.4 1022.3 0.0
22/08:00am 15.8 16.4 15.2 96 0.3 WSW 6 7 3 4 1022.2 1022.1 0.0
22/07:30am 14.2 14.1 13.9 98 0.2 NW 7 7 4 4 1021.8 1021.7 0.0
22/07:00am 13.2 13.4 12.9 98 0.2 WNW 4 7 2 4 1021.2 1021.1 0.0
22/06:30am 12.6 13.3 12.3 98 0.2 CALM 0 0 0 0 1020.8 1020.7 0.0
22/06:00am 12.9 12.6 12.6 98 0.2 SSE 6 9 3 5 1020.3 1020.2 0.0
22/05:30am 12.5 13.2 12.2 98 0.2 CALM 0 0 0 0 1019.9 1019.8 0.0
22/05:00am 12.7 12.3 12.4 98 0.2 SE 6 7 3 4 1019.5 1019.4 0.0
22/04:30am 12.5 13.2 12.2 98 0.2 CALM 0 0 0 0 1019.4 1019.3 0.0
22/04:00am 12.2 12.6 11.4 95 0.4 CALM 0 0 0 0 1019.3 1019.2 0.0
22/03:30am 13.1 13.8 12.3 95 0.4 CALM 0 6 0 3 1019.3 1019.2 0.0
22/03:00am 13.3 12.8 12.0 92 0.7 NW 6 7 3 4 1019.1 1019.0 0.0
22/02:30am 15.1 14.9 13.5 90 0.9 SW 7 13 4 7 1018.9 1018.8 0.0
22/02:00am 14.1 13.2 12.7 91 0.8 WNW 9 13 5 7 1019.0 1018.9 0.0
22/01:30am 15.4 15.9 12.9 85 1.4 E 2 7 1 4 1019.1 1019.0 0.0
22/01:00am 16.9 16.3 13.4 80 2.0 S 9 15 5 8 1019.7 1019.6 0.0
22/12:30am 17.3 16.6 13.2 77 2.3 SSE 9 15 5 8 1020.0 1019.9 0.0
22/12:00am 17.7 16.2 13.2 75 2.5 SSE 13 20 7 11 1020.3 1020.2 0.0
 
Date/Time
EST
Temp
°C
App
Temp
°C
Dew
Point
Rel
Hum
%
Delta-T
°C
Wind Press
QNH
hPa
Press
MSL
hPa
Rain
since 9 am
mm
Dir
 
Spd
km/h
Gust
km/h
Spd
kts
Gust
kts
21/11:30pm 17.9 16.5 13.4 75 2.5 SSE 13 22 7 12 1020.5 1020.4 0.0
21/11:00pm 17.9 17.0 13.8 77 2.3 SE 11 22 6 12 1020.6 1020.5 0.0
21/10:30pm 18.1 17.1 13.4 74 2.7 SSE 11 20 6 11 1020.7 1020.6 0.0
21/10:00pm 18.1 16.4 13.6 75 2.5 SSE 15 22 8 12 1020.5 1020.4 0.0
21/09:30pm 17.9 16.6 13.8 77 2.3 S 13 22 7 12 1020.5 1020.4 0.0
21/09:00pm 18.1 16.8 13.6 75 2.5 S 13 20 7 11 1020.4 1020.3 0.0
21/08:30pm 18.0 17.0 13.3 74 2.7 S 11 17 6 9 1020.1 1020.0 0.0
21/08:00pm 18.0 17.1 12.5 70 3.1 SSE 9 13 5 7 1019.8 1019.7 0.0
21/07:30pm 18.3 17.4 12.7 70 3.1 SE 9 19 5 10 1019.5 1019.4 0.0
21/07:00pm 18.7 17.1 12.9 69 3.3 SSE 13 22 7 12 1019.3 1019.2 0.0
21/06:30pm 19.3 17.3 12.6 65 3.8 SE 15 28 8 15 1018.8 1018.7 0.0
21/06:00pm 19.5 17.1 12.7 65 3.8 SSE 17 30 9 16 1018.6 1018.5 0.0
21/05:30pm 20.2 18.6 12.9 63 4.1 SE 13 24 7 13 1018.3 1018.2 0.0
21/05:00pm 21.2 18.9 13.1 60 4.6 SE 17 26 9 14 1017.9 1017.8 0.0
21/04:30pm 21.5 19.2 12.9 58 4.9 SE 17 26 9 14 1017.7 1017.6 0.0
21/04:00pm 21.9 20.5 13.3 58 4.9 SE 13 24 7 13 1017.3 1017.2 0.0
21/03:30pm 22.5 21.4 13.0 55 5.5 SE 11 15 6 8 1017.0 1016.9 0.0
21/03:00pm 22.4 21.1 12.6 54 5.6 SE 11 20 6 11 1017.0 1016.9 0.0
21/02:30pm 22.3 21.2 13.1 56 5.3 SSE 11 17 6 9 1017.3 1017.2 0.0
21/02:00pm 23.4 21.5 13.0 52 6.0 SSE 15 22 8 12 1017.5 1017.4 0.0
21/01:30pm 23.9 22.1 13.2 51 6.2 S 15 20 8 11 1017.9 1017.8 0.0
21/01:00pm 22.3 20.3 12.8 55 5.4 S 15 22 8 12 1018.2 1018.1 0.0
21/12:30pm 22.9 21.3 10.3 45 6.9 ENE 9 15 5 8 1018.7 1018.6 0.0
21/12:00pm 23.1 22.2 11.2 47 6.6 NE 7 15 4 8 1019.1 1019.0 0.0
21/11:30am 23.4 22.3 10.5 44 7.1 NNE 7 15 4 8 1019.4 1019.3 0.0
21/11:00am 22.7 21.3 10.8 47 6.6 SSE 9 17 5 9 1019.9 1019.8 0.0
21/10:30am 22.4 21.2 11.5 50 6.1 S 9 15 5 8 1020.0 1019.9 0.0
21/10:00am 22.0 21.4 12.3 54 5.5 ESE 7 13 4 7 1020.3 1020.2 0.0
21/09:30am 20.7 20.0 11.9 57 4.9 SSE 7 13 4 7 1020.4 1020.3 0.0
21/09:00am 19.5 19.0 12.7 65 3.8 S 7 13 4 7 1020.6 1020.5 0.0
21/08:30am 18.0 17.2 12.9 72 2.9 SSE 9 13 5 7 1020.4 1020.3 0.0
21/08:00am 15.6 15.0 12.4 81 1.7 S 7 13 4 7 1020.2 1020.1 0.0
21/07:30am 13.4 12.6 11.1 86 1.2 SE 6 7 3 4 1020.0 1019.9 0.0
21/07:00am 10.0 8.6 9.7 98 0.1 SSE 7 9 4 5 1019.8 1019.7 0.0
21/06:30am 7.4 6.7 7.0 97 0.2 CALM 0 0 0 0 1019.7 1019.6 0.0
21/06:00am 7.7 7.1 7.4 98 0.1 CALM 0 6 0 3 1019.4 1019.3 0.0
21/05:30am 7.4 6.3 7.0 97 0.2 SSE 2 7 1 4 1019.2 1019.1 0.0
21/05:00am 7.8 7.2 7.4 97 0.2 CALM 0 0 0 0 1018.9 1018.8 0.0
21/04:30am 7.7 7.0 7.1 96 0.3 CALM 0 0 0 0 1018.8 1018.7 0.0
21/04:00am 8.0 7.4 7.4 96 0.3 CALM 0 0 0 0 1018.9 1018.8 0.0
21/03:30am 8.3 7.5 8.0 98 0.1 SSE 2 6 1 3 1018.9 1018.8 0.0
21/03:00am 7.7 7.0 7.1 96 0.3 CALM 0 0 0 0 1019.1 1019.0 0.0
21/02:30am 7.9 7.3 7.5 97 0.2 CALM 0 0 0 0 1019.3 1019.2 0.0
21/02:00am 7.7 7.0 7.0 95 0.3 CALM 0 0 0 0 1019.5 1019.4 0.0
21/01:30am 8.0 7.4 7.4 96 0.3 CALM 0 0 0 0 1019.9 1019.8 0.0
21/01:00am 8.1 7.5 7.3 95 0.4 CALM 0 0 0 0 1020.1 1020.0 0.0
21/12:30am 8.5 8.0 7.7 95 0.4 CALM 0 0 0 0 1020.2 1020.1 0.0
21/12:00am 8.7 8.1 7.6 93 0.5 CALM 0 0 0 0 1020.2 1020.1 0.0
 
Date/Time
EST
Temp
°C
App
Temp
°C
Dew
Point
Rel
Hum
%
Delta-T
°C
Wind Press
QNH
hPa
Press
MSL
hPa
Rain
since 9 am
mm
Dir
 
Spd
km/h
Gust
km/h
Spd
kts
Gust
kts
20/11:30pm 9.4 9.0 8.3 93 0.5 CALM 0 0 0 0 1020.2 1020.1 0.0
20/11:00pm 9.9 9.6 8.5 91 0.7 CALM 0 0 0 0 1020.3 1020.2 0.0
20/10:30pm 10.5 10.3 8.9 90 0.8 CALM 0 0 0 0 1020.3 1020.2 0.0
20/10:00pm 10.9 10.7 9.0 88 0.9 CALM 0 0 0 0 1020.3 1020.2 0.0
20/09:30pm 11.5 11.4 9.4 87 1.1 CALM 0 0 0 0 1020.3 1020.2 0.0
20/09:00pm 11.9 11.8 9.6 86 1.2 CALM 0 0 0 0 1020.2 1020.1 0.0
20/08:30pm 12.4 12.0 9.6 83 1.4 SE 2 6 1 3 1020.1 1020.0 0.0
20/08:00pm 13.1 11.9 9.7 80 1.7 ENE 6 9 3 5 1019.8 1019.7 0.0
20/07:30pm 14.1 13.9 8.9 71 2.6 CALM 0 6 0 3 1019.5 1019.4 0.0
20/07:00pm 15.5 15.2 10.1 70 2.8 ENE 2 4 1 2 1019.2 1019.1 0.0
20/06:30pm 16.8 15.4 9.0 60 4.0 NE 6 9 3 5 1018.7 1018.6 0.0
20/06:00pm 18.3 16.7 8.8 54 4.9 NE 7 11 4 6 1018.3 1018.2 0.0
20/05:30pm 19.6 17.6 8.6 49 5.7 NE 9 17 5 9 1018.2 1018.1 0.0
20/05:00pm 20.6 17.8 8.6 46 6.3 NNE 13 22 7 12 1017.8 1017.7 0.0
20/04:30pm 21.1 18.7 8.7 45 6.5 NE 11 19 6 10 1017.3 1017.2 0.0
20/04:00pm 21.7 17.9 7.5 40 7.3 NE 17 24 9 13 1017.0 1016.9 0.0
20/03:30pm 22.3 19.2 7.3 38 7.8 NE 13 22 7 12 1016.8 1016.7 0.0
20/03:00pm 22.8 19.4 6.1 34 8.5 NNE 13 22 7 12 1016.5 1016.4 0.0
20/02:30pm 23.3 20.1 7.0 35 8.4 NE 13 20 7 11 1016.8 1016.7 0.0
20/02:00pm 22.6 18.8 6.0 34 8.4 NE 15 30 8 16 1017.1 1017.0 0.0
20/01:30pm 23.1 20.5 6.0 33 8.7 NNE 9 15 5 8 1017.3 1017.2 0.0
20/01:00pm 23.4 20.5 4.4 29 9.4 SSW 9 13 5 7 1017.5 1017.4 0.0
20/12:30pm 22.9 19.6 4.4 30 9.1 SSE 11 26 6 14 1017.9 1017.8 0.0
20/12:00pm 22.3 19.3 3.9 30 8.9 SSE 9 19 5 10 1018.4 1018.3 0.0
20/11:30am 22.3 18.5 3.9 30 8.9 SSW 13 24 7 13 1018.9 1018.8 0.0
20/11:00am 22.0 18.9 5.4 34 8.3 S 11 20 6 11 1019.4 1019.3 0.0
20/10:30am 21.4 18.2 5.3 35 8.0 SSE 11 19 6 10 1019.6 1019.5 0.0
20/10:00am 20.5 16.2 5.3 37 7.5 S 17 22 9 12 1019.8 1019.7 0.0
20/09:30am 19.5 16.1 5.9 41 6.7 S 13 20 7 11 1020.1 1020.0 0.0
20/09:00am 18.6 14.9 6.4 45 6.0 S 15 20 8 11 1020.2 1020.1 0.0
20/08:30am 17.1 13.8 6.6 50 5.2 S 13 19 7 10 1020.1 1020.0 0.0
20/08:00am 15.1 12.7 7.2 59 3.9 S 9 15 5 8 1019.9 1019.8 0.0
20/07:30am 11.6 9.9 8.5 81 1.5 S 7 11 4 6 1019.7 1019.6 0.0
20/07:00am 6.7 5.9 6.4 98 0.1 CALM 0 0 0 0 1019.6 1019.5 0.0
20/06:30am 5.3 4.2 4.9 97 0.2 CALM 0 0 0 0 1019.4 1019.3 0.0
20/06:00am 5.3 4.2 4.9 97 0.2 CALM 0 0 0 0 1019.2 1019.1 0.0
20/05:30am 5.7 4.6 5.3 97 0.2 CALM 0 0 0 0 1019.0 1018.9 0.0
20/05:00am 5.6 4.5 5.0 96 0.3 CALM 0 0 0 0 1018.6 1018.5 0.0
20/04:30am 5.9 4.9 5.5 97 0.2 CALM 0 0 0 0 1018.5 1018.4 0.0
20/04:00am 5.9 4.8 5.3 96 0.3 CALM 0 0 0 0 1018.2 1018.1 0.0
20/03:30am 6.1 5.1 5.4 95 0.3 CALM 0 0 0 0 1018.0 1017.9 0.0
20/03:00am 6.5 5.5 5.8 95 0.3 CALM 0 0 0 0 1018.0 1017.9 0.0
20/02:30am 7.0 5.8 6.3 95 0.3 S 2 6 1 3 1018.0 1017.9 0.0
20/02:00am 7.1 6.3 6.5 96 0.3 CALM 0 0 0 0 1018.1 1018.0 0.0
20/01:30am 7.3 6.5 6.6 95 0.3 CALM 0 0 0 0 1018.1 1018.0 0.0
20/01:00am 7.6 5.6 6.4 92 0.5 S 6 7 3 4 1018.1 1018.0 0.0
20/12:30am 7.7 7.0 7.1 96 0.3 CALM 0 0 0 0 1017.9 1017.8 0.0
20/12:00am 7.8 7.1 7.1 95 0.3 CALM 0 0 0 0 1018.1 1018.0 0.0
 
Date/Time
EST
Temp
°C
App
Temp
°C
Dew
Point
Rel
Hum
%
Delta-T
°C
Wind Press
QNH
hPa
Press
MSL
hPa
Rain
since 9 am
mm
Dir
 
Spd
km/h
Gust
km/h
Spd
kts
Gust
kts
19/11:30pm 8.1 7.5 7.3 95 0.4 CALM 0 4 0 2 1018.1 1018.0 0.0
19/11:00pm 8.3 7.3 7.5 95 0.4 ESE 2 7 1 4 1018.3 1018.2 0.0
19/10:30pm 9.0 8.6 8.2 95 0.4 CALM 0 0 0 0 1018.2 1018.1 0.0
19/10:00pm 9.3 9.0 8.5 95 0.4 CALM 0 0 0 0 1018.1 1018.0 0.0
19/09:30pm 9.9 9.7 9.0 94 0.4 CALM 0 0 0 0 1018.0 1017.9 0.0
19/09:00pm 10.5 10.4 9.4 93 0.5 CALM 0 0 0 0 1018.0 1017.9 0.0
19/08:30pm 11.5 11.1 9.8 89 0.9 SSE 2 6 1 3 1017.7 1017.6 0.0
19/08:00pm 12.2 11.5 9.9 86 1.2 SE 4 11 2 6 1017.6 1017.5 0.0
19/07:30pm 13.1 13.2 10.1 82 1.5 CALM 0 0 0 0 1017.1 1017.0 0.0
19/07:00pm 14.2 14.3 10.0 76 2.2 CALM 0 0 0 0 1016.7 1016.6 0.0
19/06:30pm 16.0 15.9 9.4 65 3.4 CALM 0 0 0 0 1016.3 1016.2 0.0
19/06:00pm 18.7 17.3 9.5 55 4.9 ENE 7 11 4 6 1015.9 1015.8 0.0
19/05:30pm 21.7 19.1 4.3 32 8.5 SSW 7 11 4 6 1015.5 1015.4 0.0
19/05:00pm 23.3 19.5 1.6 24 10.2 SSW 11 17 6 9 1015.1 1015.0 0.0
19/04:30pm 24.0 19.3 1.0 22 10.7 SW 15 20 8 11 1014.8 1014.7 0.0
19/04:00pm 24.2 18.6 -0.2 20 11.1 SSW 19 28 10 15 1014.7 1014.6 0.0

Other Formats:

Comma delimited format used in spreadsheet applications
http://www.bom.gov.au/fwo/IDQ60801/IDQ60801.95370.axf

JavaScript Object Notation format (JSON) in row-major order
http://www.bom.gov.au/fwo/IDQ60801/IDQ60801.95370.json